createdAt,value
2022-10-13T00:00:20.742Z,65.06
2022-10-13T00:03:06.077Z,64.87
2022-10-13T00:05:51.797Z,65.06
2022-10-13T00:08:38.172Z,65.04
2022-10-13T00:11:26.814Z,64.87
2022-10-13T00:14:12.292Z,65.00
2022-10-13T00:16:57.509Z,64.69
2022-10-13T00:19:42.898Z,64.90
2022-10-13T00:22:28.072Z,64.87
2022-10-13T00:25:13.432Z,64.86
2022-10-13T00:27:59.789Z,64.93
2022-10-13T00:30:50.510Z,64.84
2022-10-13T00:33:35.770Z,64.67
2022-10-13T00:36:23.480Z,64.94
2022-10-13T00:39:08.971Z,64.81
2022-10-13T00:41:54.536Z,64.99
2022-10-13T00:45:00.718Z,64.94
2022-10-13T00:47:50.143Z,65.09
2022-10-13T00:50:40.943Z,64.91
2022-10-13T00:53:31.497Z,65.04
2022-10-13T00:56:19.728Z,64.91
2022-10-13T00:59:13.568Z,65.07
2022-10-13T01:02:00.807Z,64.97
2022-10-13T01:04:47.852Z,64.87
2022-10-13T01:07:34.806Z,64.96
2022-10-13T01:10:39.959Z,64.86
2022-10-13T01:13:31.469Z,65.07
2022-10-13T01:16:40.930Z,64.95
2022-10-13T01:20:02.489Z,65.00
2022-10-13T01:22:59.811Z,65.06
2022-10-13T01:26:11.078Z,65.00
2022-10-13T01:29:12.015Z,64.95
2022-10-13T01:32:16.560Z,64.98
2022-10-13T01:35:22.619Z,65.12
2022-10-13T01:38:25.484Z,64.81
2022-10-13T01:41:38.576Z,64.89
2022-10-13T01:44:34.175Z,64.90
2022-10-13T01:47:21.582Z,64.91
2022-10-13T01:50:08.992Z,65.04
2022-10-13T01:52:59.304Z,64.99
2022-10-13T01:55:59.764Z,65.04
2022-10-13T01:58:47.610Z,64.93
2022-10-13T02:01:42.316Z,65.04
2022-10-13T02:04:29.410Z,65.11
2022-10-13T02:07:30.023Z,64.99
2022-10-13T02:10:27.315Z,65.01
2022-10-13T02:13:17.998Z,65.13
2022-10-13T02:16:03.492Z,65.05
2022-10-13T02:18:50.410Z,65.01
2022-10-13T02:21:36.148Z,65.20
2022-10-13T02:24:21.407Z,65.00
2022-10-13T02:27:08.735Z,65.12
2022-10-13T02:29:58.018Z,65.29
2022-10-13T02:32:47.772Z,65.20
2022-10-13T02:35:33.817Z,65.34
2022-10-13T02:38:19.501Z,65.27
2022-10-13T02:41:05.030Z,65.19
2022-10-13T02:43:50.143Z,65.28
2022-10-13T02:46:35.671Z,65.43
2022-10-13T02:49:21.007Z,65.34
2022-10-13T02:52:07.256Z,65.37
2022-10-13T02:55:00.912Z,65.48
2022-10-13T02:57:46.553Z,65.45
2022-10-13T03:00:31.856Z,65.71
2022-10-13T03:03:17.198Z,65.78
2022-10-13T03:06:02.879Z,65.82
2022-10-13T03:08:48.252Z,65.84
2022-10-13T03:11:34.112Z,65.70
2022-10-13T03:14:19.397Z,65.99
2022-10-13T03:17:07.800Z,65.93
2022-10-13T03:19:55.858Z,65.98
2022-10-13T03:22:42.474Z,65.90
2022-10-13T03:25:30.116Z,66.01
2022-10-13T03:28:15.450Z,65.75
2022-10-13T03:31:07.302Z,65.90
2022-10-13T03:33:52.502Z,66.06
2022-10-13T03:36:37.978Z,66.19
2022-10-13T03:39:23.115Z,66.02
2022-10-13T03:42:09.172Z,66.26
2022-10-13T03:44:56.480Z,66.19
2022-10-13T03:47:41.976Z,66.21
2022-10-13T03:50:27.183Z,66.15
2022-10-13T03:53:12.983Z,66.02
2022-10-13T03:55:58.171Z,66.20
2022-10-13T03:58:44.160Z,66.06
2022-10-13T04:01:30.678Z,66.06
2022-10-13T04:04:15.883Z,65.99
2022-10-13T04:07:01.998Z,67.08
2022-10-13T04:09:47.192Z,66.43
2022-10-13T04:12:32.429Z,67.06
2022-10-13T04:15:17.754Z,67.36
2022-10-13T04:18:03.152Z,66.63
2022-10-13T04:20:48.607Z,66.92
2022-10-13T04:23:33.804Z,66.70
2022-10-13T04:26:22.229Z,66.83
2022-10-13T04:29:09.614Z,66.63
2022-10-13T04:31:55.579Z,66.56
2022-10-13T04:34:41.659Z,66.73
2022-10-13T04:37:27.300Z,66.42
2022-10-13T04:40:12.929Z,66.41
2022-10-13T04:42:58.587Z,62.46
2022-10-13T04:45:43.809Z,65.90
2022-10-13T04:48:29.478Z,65.96
2022-10-13T04:51:17.577Z,66.40
2022-10-13T04:54:05.488Z,67.60
2022-10-13T04:56:51.012Z,67.87
2022-10-13T04:59:36.266Z,67.26
2022-10-13T05:02:21.699Z,68.20
2022-10-13T05:05:07.891Z,67.99
2022-10-13T05:07:53.119Z,67.86
2022-10-13T05:10:38.336Z,67.24
2022-10-13T05:13:24.972Z,67.33
2022-10-13T05:16:13.362Z,66.90
2022-10-13T05:18:58.916Z,66.75
2022-10-13T05:21:44.187Z,66.50
2022-10-13T05:24:38.920Z,66.40
2022-10-13T05:27:24.456Z,66.52
2022-10-13T05:30:10.374Z,66.23
2022-10-13T05:32:55.698Z,66.17
2022-10-13T05:35:41.306Z,66.11
2022-10-13T05:38:26.612Z,65.88
2022-10-13T05:41:13.903Z,66.00
2022-10-13T05:44:09.251Z,66.00
2022-10-13T05:47:05.037Z,66.12
2022-10-13T05:49:52.643Z,65.97
2022-10-13T05:52:37.927Z,66.00
2022-10-13T05:55:23.240Z,65.92
2022-10-13T05:58:08.721Z,65.88
2022-10-13T06:00:55.168Z,66.06
2022-10-13T06:03:42.042Z,66.09
2022-10-13T06:06:31.279Z,66.02
2022-10-13T06:09:17.555Z,66.10
2022-10-13T06:12:03.352Z,65.88
2022-10-13T06:14:48.939Z,65.81
2022-10-13T06:17:38.120Z,66.05
2022-10-13T06:20:23.930Z,66.05
2022-10-13T06:23:09.326Z,66.04
2022-10-13T06:25:54.603Z,65.94
2022-10-13T06:28:39.852Z,65.96
2022-10-13T06:31:25.011Z,66.09
2022-10-13T06:34:10.166Z,66.03
2022-10-13T06:36:55.716Z,66.26
2022-10-13T06:39:42.095Z,65.98
2022-10-13T06:42:30.950Z,66.19
2022-10-13T06:45:28.324Z,66.17
2022-10-13T06:48:13.978Z,65.96
2022-10-13T06:51:04.640Z,66.27
2022-10-13T06:53:49.945Z,66.31
2022-10-13T06:56:39.576Z,66.37
2022-10-13T06:59:29.504Z,66.33
2022-10-13T07:02:14.729Z,66.23
2022-10-13T07:05:00.118Z,66.35
2022-10-13T07:07:45.634Z,66.17
2022-10-13T07:10:30.732Z,66.41
2022-10-13T07:13:16.090Z,66.41
2022-10-13T07:16:05.688Z,66.39
2022-10-13T07:18:51.153Z,66.50
2022-10-13T07:21:36.823Z,66.50
2022-10-13T07:24:22.433Z,66.29
2022-10-13T07:27:07.999Z,66.34
2022-10-13T07:29:53.577Z,66.48
2022-10-13T07:32:42.001Z,66.42
2022-10-13T07:35:30.644Z,66.40
2022-10-13T07:38:16.685Z,66.52
2022-10-13T07:41:09.458Z,66.23
2022-10-13T07:43:57.985Z,66.32
2022-10-13T07:46:43.226Z,66.34
2022-10-13T07:49:28.532Z,66.33
2022-10-13T07:52:15.513Z,66.39
2022-10-13T07:55:00.763Z,66.48
2022-10-13T07:57:46.028Z,66.17
2022-10-13T08:00:31.319Z,66.29
2022-10-13T08:03:16.746Z,66.40
2022-10-13T08:06:04.066Z,66.46
2022-10-13T08:08:49.274Z,66.31
2022-10-13T08:11:38.593Z,66.16
2022-10-13T08:14:24.487Z,66.22
2022-10-13T08:17:09.719Z,66.27
2022-10-13T08:19:55.314Z,66.27
2022-10-13T08:22:44.371Z,66.15
2022-10-13T08:25:29.702Z,66.11
2022-10-13T08:28:24.208Z,66.15
2022-10-13T08:31:09.684Z,66.10
2022-10-13T08:33:54.918Z,66.08
2022-10-13T08:36:40.563Z,66.04
2022-10-13T08:39:26.163Z,66.06
2022-10-13T08:42:18.301Z,66.13
2022-10-13T08:45:35.842Z,65.99
2022-10-13T08:48:13.855Z,66.04
2022-10-13T08:51:07.516Z,65.86
2022-10-13T08:53:54.846Z,65.88
2022-10-13T08:56:40.197Z,66.01
2022-10-13T08:59:25.522Z,65.84
2022-10-13T09:02:29.358Z,66.04
2022-10-13T09:05:27.994Z,65.88
2022-10-13T09:08:20.519Z,65.82
2022-10-13T09:11:05.752Z,65.89
2022-10-13T09:13:55.532Z,65.94
2022-10-13T09:16:43.500Z,65.94
2022-10-13T09:19:34.107Z,66.00
2022-10-13T09:22:24.149Z,65.97
2022-10-13T09:25:20.586Z,65.72
2022-10-13T09:28:15.817Z,65.79
2022-10-13T09:31:17.051Z,65.89
2022-10-13T09:34:13.500Z,65.79
2022-10-13T09:37:04.867Z,65.69
2022-10-13T09:40:14.748Z,65.83
2022-10-13T09:43:01.831Z,65.82
2022-10-13T09:45:47.334Z,65.83
2022-10-13T09:48:36.564Z,65.73
2022-10-13T09:51:36.828Z,65.77
2022-10-13T09:54:39.944Z,65.70
2022-10-13T09:57:41.262Z,65.83
2022-10-13T10:00:28.239Z,65.68
2022-10-13T10:03:22.268Z,65.81
2022-10-13T10:06:12.279Z,65.84
2022-10-13T10:09:05.164Z,65.69
2022-10-13T10:11:53.452Z,65.75
2022-10-13T10:14:39.340Z,65.66
2022-10-13T10:17:43.867Z,65.60
2022-10-13T10:20:54.294Z,65.81
2022-10-13T10:23:53.963Z,65.94
2022-10-13T10:26:51.349Z,65.86
2022-10-13T10:30:01.837Z,65.98
2022-10-13T10:32:50.201Z,65.87
2022-10-13T10:35:39.056Z,65.97
2022-10-13T10:38:45.830Z,65.87
2022-10-13T10:42:00.850Z,65.92
2022-10-13T10:44:49.181Z,65.90
2022-10-13T10:47:42.044Z,65.88
2022-10-13T10:50:30.856Z,65.90
2022-10-13T10:53:30.770Z,65.98
2022-10-13T10:56:27.719Z,65.79
2022-10-13T10:59:27.859Z,65.86
2022-10-13T11:02:34.911Z,65.91
2022-10-13T11:05:20.389Z,65.85
2022-10-13T11:08:28.733Z,65.96
2022-10-13T11:11:24.937Z,65.67
2022-10-13T11:14:29.484Z,65.69
2022-10-13T11:17:41.665Z,65.59
2022-10-13T11:20:27.016Z,65.57
2022-10-13T11:23:12.528Z,65.80
2022-10-13T11:26:26.253Z,65.61
2022-10-13T11:29:19.776Z,65.81
2022-10-13T11:32:05.250Z,65.84
2022-10-13T11:35:05.781Z,65.77
2022-10-13T11:38:05.634Z,65.88
2022-10-13T11:41:17.672Z,65.99
2022-10-13T11:44:13.329Z,66.04
2022-10-13T11:47:15.075Z,66.31
2022-10-13T11:50:25.334Z,66.38
2022-10-13T11:53:33.854Z,66.34
2022-10-13T11:56:39.360Z,66.35
2022-10-13T11:59:35.672Z,66.38
2022-10-13T12:02:23.451Z,66.61
2022-10-13T12:05:25.352Z,66.38
2022-10-13T12:08:10.848Z,66.43
2022-10-13T12:10:59.990Z,66.54
2022-10-13T12:13:47.121Z,66.43
2022-10-13T12:16:33.944Z,66.52
2022-10-13T12:19:22.630Z,66.50
2022-10-13T12:22:12.459Z,66.45
2022-10-13T12:25:06.177Z,66.59
2022-10-13T12:27:54.578Z,66.28
2022-10-13T12:30:39.885Z,66.38
2022-10-13T12:33:35.466Z,66.60
2022-10-13T12:36:25.934Z,66.69
2022-10-13T12:39:15.325Z,66.86
2022-10-13T12:42:02.575Z,66.39
2022-10-13T12:44:48.306Z,66.72
2022-10-13T12:47:49.340Z,66.44
2022-10-13T12:50:37.381Z,66.61
2022-10-13T12:53:28.601Z,66.36
2022-10-13T12:56:29.385Z,66.48
2022-10-13T12:59:19.578Z,66.18
2022-10-13T13:02:22.159Z,66.23
2022-10-13T13:05:30.912Z,66.48
2022-10-13T13:08:33.034Z,66.52
2022-10-13T13:11:25.079Z,66.68
2022-10-13T13:14:37.619Z,66.92
2022-10-13T13:17:56.533Z,67.03
2022-10-13T13:20:37.970Z,66.67
2022-10-13T13:23:23.760Z,66.90
2022-10-13T13:26:21.632Z,67.07
2022-10-13T13:29:10.767Z,66.92
2022-10-13T13:31:56.232Z,67.14
2022-10-13T13:34:44.519Z,66.51
2022-10-13T13:37:36.856Z,66.92
2022-10-13T13:40:24.896Z,67.23
2022-10-13T13:43:10.129Z,67.43
2022-10-13T13:54:16.465Z,66.94
2022-10-13T13:57:01.350Z,66.79
2022-10-13T13:59:47.045Z,67.08
2022-10-13T14:02:32.328Z,66.90
2022-10-13T14:05:17.514Z,66.92
2022-10-13T14:08:03.102Z,66.92
2022-10-13T14:10:48.417Z,67.14
2022-10-13T14:13:36.311Z,67.07
2022-10-13T14:16:22.216Z,67.12
2022-10-13T14:19:11.396Z,67.09
2022-10-13T14:21:56.781Z,67.21
2022-10-13T14:24:42.128Z,66.18
2022-10-13T14:27:28.842Z,66.47
2022-10-13T14:30:14.823Z,66.65
2022-10-13T14:33:00.437Z,66.59
2022-10-13T14:35:47.657Z,66.78
2022-10-13T14:38:35.245Z,66.92
2022-10-13T14:41:20.699Z,66.93
2022-10-13T14:44:11.845Z,66.94
2022-10-13T14:46:58.342Z,67.12
2022-10-13T14:49:44.120Z,67.55
2022-10-13T14:52:29.431Z,67.92
2022-10-13T14:55:15.457Z,67.38
2022-10-13T14:58:03.072Z,67.04
2022-10-13T15:00:48.395Z,66.96
2022-10-13T15:03:33.765Z,66.96
2022-10-13T15:06:21.462Z,66.14
2022-10-13T15:11:54.815Z,65.86
2022-10-13T15:14:39.970Z,65.69
2022-10-13T15:17:25.397Z,65.68
2022-10-13T15:20:11.037Z,65.70
2022-10-13T15:22:56.201Z,65.46
2022-10-13T15:25:51.000Z,65.78
2022-10-13T15:28:39.333Z,65.08
2022-10-13T15:31:30.989Z,65.68
2022-10-13T15:34:16.412Z,65.97
2022-10-13T15:37:01.622Z,66.22
2022-10-13T15:39:47.382Z,66.14
2022-10-13T15:42:32.871Z,66.64
2022-10-13T15:45:18.367Z,66.30
2022-10-13T15:48:06.566Z,66.95
2022-10-13T15:50:51.799Z,66.72
2022-10-13T15:53:37.551Z,66.80
2022-10-13T15:56:23.178Z,66.53
2022-10-13T15:59:08.844Z,66.42
2022-10-13T16:01:54.007Z,66.24
2022-10-13T16:04:39.272Z,66.40
2022-10-13T16:07:24.598Z,66.22
2022-10-13T16:10:12.402Z,65.79
2022-10-13T16:12:57.616Z,65.67
2022-10-13T16:15:42.998Z,65.21
2022-10-13T16:18:29.716Z,65.37
2022-10-13T16:21:21.542Z,65.57
2022-10-13T16:24:07.642Z,65.86
2022-10-13T16:26:53.461Z,66.29
2022-10-13T16:29:39.688Z,66.40
2022-10-13T16:32:25.774Z,66.57
2022-10-13T16:35:12.598Z,67.07
2022-10-13T16:37:58.419Z,67.07
2022-10-13T16:40:44.223Z,67.40
2022-10-13T16:43:30.877Z,67.53
2022-10-13T16:46:19.084Z,67.73
2022-10-13T16:49:05.035Z,68.15
2022-10-13T16:51:50.480Z,68.16
2022-10-13T16:54:36.522Z,68.34
2022-10-13T16:57:22.850Z,68.17
2022-10-13T17:00:09.846Z,68.04
2022-10-13T17:02:55.511Z,67.98
2022-10-13T17:05:40.844Z,67.97
2022-10-13T17:08:26.102Z,68.05
2022-10-13T17:11:20.797Z,67.75
2022-10-13T17:14:07.079Z,67.36
2022-10-13T17:16:57.414Z,67.03
2022-10-13T17:19:44.296Z,67.21
2022-10-13T17:22:30.073Z,67.46
2022-10-13T17:25:15.553Z,67.15
2022-10-13T17:28:00.820Z,67.21
2022-10-13T17:30:56.911Z,67.13
2022-10-13T17:33:43.055Z,67.38
2022-10-13T17:36:31.704Z,67.22
2022-10-13T17:39:19.759Z,67.30
2022-10-13T17:42:05.210Z,67.25
2022-10-13T17:44:50.599Z,66.90
2022-10-13T17:47:36.161Z,66.95
2022-10-13T17:50:22.241Z,66.74
2022-10-13T17:53:07.759Z,67.21
2022-10-13T17:55:54.763Z,66.77
2022-10-13T17:58:41.973Z,66.77
2022-10-13T18:01:34.436Z,66.85
2022-10-13T18:04:20.120Z,66.32
2022-10-13T18:07:05.356Z,66.86
2022-10-13T18:09:52.717Z,66.90
2022-10-13T18:12:38.001Z,66.98
2022-10-13T18:15:23.149Z,67.06
2022-10-13T18:18:09.245Z,66.87
2022-10-13T18:29:28.039Z,66.99
2022-10-13T18:32:12.813Z,66.81
2022-10-13T18:34:58.145Z,67.05
2022-10-13T18:37:43.727Z,66.93
2022-10-13T18:40:29.115Z,66.93
2022-10-13T18:43:14.666Z,67.21
2022-10-13T18:46:01.224Z,66.93
2022-10-13T18:48:46.615Z,66.81
2022-10-13T18:51:36.234Z,66.92
2022-10-13T18:54:21.924Z,66.99
2022-10-13T18:57:07.268Z,66.75
2022-10-13T18:59:52.352Z,66.89
2022-10-13T19:02:44.443Z,66.65
2022-10-13T19:05:29.744Z,66.61
2022-10-13T19:08:15.487Z,66.73
2022-10-13T19:11:00.892Z,66.50
2022-10-13T19:13:47.218Z,66.75
2022-10-13T19:16:35.056Z,66.67
2022-10-13T19:19:20.610Z,66.50
2022-10-13T19:22:07.785Z,66.74
2022-10-13T19:24:52.963Z,66.55
2022-10-13T19:27:38.313Z,66.32
2022-10-13T19:30:26.323Z,66.68
2022-10-13T19:33:13.943Z,66.78
2022-10-13T19:36:05.846Z,66.78
2022-10-13T19:38:51.478Z,66.68
2022-10-13T19:41:37.044Z,66.38
2022-10-13T19:44:24.832Z,66.62
2022-10-13T19:47:10.390Z,66.63
2022-10-13T19:49:55.791Z,66.74
2022-10-13T19:52:42.194Z,66.78
2022-10-13T19:55:28.237Z,66.63
2022-10-13T19:58:16.270Z,66.85
2022-10-13T20:01:04.092Z,66.75
2022-10-13T20:03:49.881Z,66.62
2022-10-13T20:06:35.365Z,66.93
2022-10-13T20:09:20.913Z,66.85
2022-10-13T20:12:06.552Z,66.75
2022-10-13T20:14:55.152Z,66.80
2022-10-13T20:17:40.557Z,66.82
2022-10-13T20:20:25.943Z,66.88
2022-10-13T20:23:11.910Z,67.29
2022-10-13T20:26:03.916Z,67.11
2022-10-13T20:28:54.452Z,67.41
2022-10-13T20:31:39.775Z,67.44
2022-10-13T20:34:25.043Z,67.53
2022-10-13T20:37:10.580Z,67.23
2022-10-13T20:39:57.192Z,67.48
2022-10-13T20:42:42.584Z,67.34
2022-10-13T20:45:29.901Z,67.39
2022-10-13T20:48:15.270Z,67.55
2022-10-13T20:51:06.515Z,67.37
2022-10-13T20:53:52.098Z,67.55
2022-10-13T20:56:37.888Z,67.50
2022-10-13T20:59:23.559Z,67.43
2022-10-13T21:02:13.967Z,67.43
2022-10-13T21:04:59.196Z,67.46
2022-10-13T21:07:44.944Z,67.27
2022-10-13T21:10:30.191Z,67.36
2022-10-13T21:13:16.027Z,67.35
2022-10-13T21:16:10.473Z,67.37
2022-10-13T21:18:57.280Z,67.43
2022-10-13T21:21:42.568Z,67.30
2022-10-13T21:24:27.994Z,67.26
2022-10-13T21:27:13.284Z,67.42
2022-10-13T21:29:58.632Z,67.54
2022-10-13T21:32:43.848Z,67.45
2022-10-13T21:35:29.078Z,67.53
2022-10-13T21:38:14.344Z,67.56
2022-10-13T21:41:00.192Z,67.51
2022-10-13T21:43:45.737Z,67.47
2022-10-13T21:46:33.270Z,67.43
2022-10-13T21:49:18.789Z,67.38
2022-10-13T21:52:04.349Z,67.57
2022-10-13T21:54:50.178Z,67.55
2022-10-13T21:57:35.478Z,67.86
2022-10-13T22:00:20.787Z,67.85
2022-10-13T22:03:06.023Z,67.57
2022-10-13T22:05:51.176Z,67.60
2022-10-13T22:08:40.946Z,67.60
2022-10-13T22:11:42.226Z,67.75
2022-10-13T22:14:30.510Z,67.71
2022-10-13T22:17:15.699Z,67.62
2022-10-13T22:20:00.894Z,67.54
2022-10-13T22:22:46.660Z,67.66
2022-10-13T22:25:32.154Z,67.50
2022-10-13T22:28:17.671Z,67.80
2022-10-13T22:31:07.068Z,67.49
2022-10-13T22:33:53.802Z,67.59
2022-10-13T22:36:44.560Z,67.69
2022-10-13T22:39:30.300Z,67.33
2022-10-13T22:42:22.799Z,67.93
2022-10-13T22:45:08.470Z,67.46
2022-10-13T22:47:54.066Z,67.68
2022-10-13T22:50:39.347Z,67.65
2022-10-13T22:53:24.559Z,67.56
2022-10-13T22:56:13.684Z,67.55
2022-10-13T22:59:06.326Z,67.76
2022-10-13T23:01:51.482Z,67.56
2022-10-13T23:04:36.647Z,67.41
2022-10-13T23:07:22.324Z,67.46
2022-10-13T23:10:08.200Z,67.48
2022-10-13T23:12:54.726Z,67.48
2022-10-13T23:15:40.192Z,67.43
2022-10-13T23:18:25.294Z,67.35
2022-10-13T23:21:13.820Z,67.59
2022-10-13T23:24:05.383Z,67.64
2022-10-13T23:26:50.700Z,67.43
2022-10-13T23:29:36.031Z,67.64
2022-10-13T23:32:21.276Z,67.57
2022-10-13T23:35:06.700Z,67.28
2022-10-13T23:37:52.875Z,67.59
2022-10-13T23:40:38.498Z,67.38
2022-10-13T23:43:23.703Z,67.58
2022-10-13T23:46:10.713Z,67.63
2022-10-13T23:48:56.826Z,67.57
2022-10-13T23:51:45.185Z,67.56
2022-10-13T23:54:31.126Z,67.63
2022-10-13T23:57:16.493Z,67.57
